sensor_id;sensor_type;location;lat;lon;timestamp;pressure;altitude;pressure_sealevel;temperature
63220;BMP180;49320;52.512;13.448;2022-07-29T00:01:50;101538.00;;;24.10
63220;BMP180;49320;52.512;13.448;2022-07-29T00:04:20;101536.00;;;24.10
63220;BMP180;49320;52.512;13.448;2022-07-29T00:06:47;101555.00;;;24.10
63220;BMP180;49320;52.512;13.448;2022-07-29T00:09:14;101542.00;;;24.00
63220;BMP180;49320;52.512;13.448;2022-07-29T00:11:41;101541.00;;;24.00
63220;BMP180;49320;52.512;13.448;2022-07-29T00:14:08;101549.00;;;23.90
63220;BMP180;49320;52.512;13.448;2022-07-29T00:16:35;101554.00;;;23.90
63220;BMP180;49320;52.512;13.448;2022-07-29T00:19:02;101547.00;;;23.90
63220;BMP180;49320;52.512;13.448;2022-07-29T00:21:29;101545.00;;;23.80
63220;BMP180;49320;52.512;13.448;2022-07-29T00:23:56;101539.00;;;23.80
63220;BMP180;49320;52.512;13.448;2022-07-29T00:26:23;101530.00;;;23.80
63220;BMP180;49320;52.512;13.448;2022-07-29T00:28:50;101534.00;;;23.80
63220;BMP180;49320;52.512;13.448;2022-07-29T00:31:17;101538.00;;;23.80
63220;BMP180;49320;52.512;13.448;2022-07-29T00:33:44;101532.00;;;23.70
63220;BMP180;49320;52.512;13.448;2022-07-29T00:36:11;101529.00;;;23.70
63220;BMP180;49320;52.512;13.448;2022-07-29T00:38:38;101527.00;;;23.70
63220;BMP180;49320;52.512;13.448;2022-07-29T00:41:04;101529.00;;;23.70
63220;BMP180;49320;52.512;13.448;2022-07-29T00:43:31;101537.00;;;23.60
63220;BMP180;49320;52.512;13.448;2022-07-29T00:45:58;101529.00;;;23.60
63220;BMP180;49320;52.512;13.448;2022-07-29T00:48:25;101525.00;;;23.60
63220;BMP180;49320;52.512;13.448;2022-07-29T00:50:52;101522.00;;;23.60
63220;BMP180;49320;52.512;13.448;2022-07-29T00:53:19;101530.00;;;23.60
63220;BMP180;49320;52.512;13.448;2022-07-29T00:55:47;101516.00;;;23.60
63220;BMP180;49320;52.512;13.448;2022-07-29T00:58:14;101512.00;;;23.60
63220;BMP180;49320;52.512;13.448;2022-07-29T01:00:42;101518.00;;;23.60
63220;BMP180;49320;52.512;13.448;2022-07-29T01:03:11;101507.00;;;23.50
63220;BMP180;49320;52.512;13.448;2022-07-29T01:05:41;101512.00;;;23.50
63220;BMP180;49320;52.512;13.448;2022-07-29T01:08:18;101496.00;;;23.50
63220;BMP180;49320;52.512;13.448;2022-07-29T01:10:46;101506.00;;;23.50
63220;BMP180;49320;52.512;13.448;2022-07-29T01:13:15;101509.00;;;23.50
63220;BMP180;49320;52.512;13.448;2022-07-29T01:16:08;101510.00;;;23.50
63220;BMP180;49320;52.512;13.448;2022-07-29T01:18:44;101507.00;;;23.40
63220;BMP180;49320;52.512;13.448;2022-07-29T01:30:22;101492.00;;;23.30
63220;BMP180;49320;52.512;13.448;2022-07-29T01:33:02;101486.00;;;23.30
63220;BMP180;49320;52.512;13.448;2022-07-29T01:35:38;101486.00;;;23.30
63220;BMP180;49320;52.512;13.448;2022-07-29T01:38:17;101469.00;;;23.30
63220;BMP180;49320;52.512;13.448;2022-07-29T01:40:52;101472.00;;;23.30
63220;BMP180;49320;52.512;13.448;2022-07-29T01:43:23;101458.00;;;23.20
63220;BMP180;49320;52.512;13.448;2022-07-29T01:46:03;101450.00;;;23.20
63220;BMP180;49320;52.512;13.448;2022-07-29T01:48:45;101441.00;;;23.20
63220;BMP180;49320;52.512;13.448;2022-07-29T01:51:51;101437.00;;;23.20
63220;BMP180;49320;52.512;13.448;2022-07-29T01:54:30;101431.00;;;23.20
63220;BMP180;49320;52.512;13.448;2022-07-29T01:57:00;101429.00;;;23.10
63220;BMP180;49320;52.512;13.448;2022-07-29T01:59:29;101429.00;;;23.10
63220;BMP180;49320;52.512;13.448;2022-07-29T02:01:58;101425.00;;;23.10
63220;BMP180;49320;52.512;13.448;2022-07-29T02:04:29;101427.00;;;23.10
63220;BMP180;49320;52.512;13.448;2022-07-29T02:07:03;101435.00;;;23.10
63220;BMP180;49320;52.512;13.448;2022-07-29T02:09:35;101417.00;;;23.10
63220;BMP180;49320;52.512;13.448;2022-07-29T02:12:05;101424.00;;;23.10
63220;BMP180;49320;52.512;13.448;2022-07-29T02:14:40;101423.00;;;23.10
63220;BMP180;49320;52.512;13.448;2022-07-29T02:17:10;101424.00;;;23.10
63220;BMP180;49320;52.512;13.448;2022-07-29T02:19:39;101438.00;;;23.00
63220;BMP180;49320;52.512;13.448;2022-07-29T02:22:09;101426.00;;;23.00
63220;BMP180;49320;52.512;13.448;2022-07-29T02:24:38;101426.00;;;23.00
63220;BMP180;49320;52.512;13.448;2022-07-29T02:27:07;101431.00;;;23.00
63220;BMP180;49320;52.512;13.448;2022-07-29T02:29:39;101435.00;;;23.00
63220;BMP180;49320;52.512;13.448;2022-07-29T02:32:09;101432.00;;;23.00
63220;BMP180;49320;52.512;13.448;2022-07-29T02:34:39;101428.00;;;22.90
63220;BMP180;49320;52.512;13.448;2022-07-29T02:37:10;101442.00;;;22.90
63220;BMP180;49320;52.512;13.448;2022-07-29T02:39:40;101433.00;;;22.90
63220;BMP180;49320;52.512;13.448;2022-07-29T02:42:14;101435.00;;;22.90
63220;BMP180;49320;52.512;13.448;2022-07-29T02:44:42;101436.00;;;22.90
63220;BMP180;49320;52.512;13.448;2022-07-29T02:47:26;101440.00;;;22.90
63220;BMP180;49320;52.512;13.448;2022-07-29T02:52:47;101442.00;;;22.90
63220;BMP180;49320;52.512;13.448;2022-07-29T02:55:40;101437.00;;;22.90
63220;BMP180;49320;52.512;13.448;2022-07-29T02:58:25;101436.00;;;22.90
63220;BMP180;49320;52.512;13.448;2022-07-29T03:01:02;101434.00;;;22.90
63220;BMP180;49320;52.512;13.448;2022-07-29T03:03:37;101431.00;;;22.90
63220;BMP180;49320;52.512;13.448;2022-07-29T03:06:07;101426.00;;;22.90
63220;BMP180;49320;52.512;13.448;2022-07-29T03:08:55;101435.00;;;22.90
63220;BMP180;49320;52.512;13.448;2022-07-29T03:11:24;101436.00;;;22.90
63220;BMP180;49320;52.512;13.448;2022-07-29T03:14:12;101427.00;;;23.00
63220;BMP180;49320;52.512;13.448;2022-07-29T03:16:42;101441.00;;;23.00
63220;BMP180;49320;52.512;13.448;2022-07-29T03:19:09;101418.00;;;23.00
63220;BMP180;49320;52.512;13.448;2022-07-29T03:21:35;101433.00;;;23.00
63220;BMP180;49320;52.512;13.448;2022-07-29T03:24:02;101428.00;;;23.00
63220;BMP180;49320;52.512;13.448;2022-07-29T03:26:36;101428.00;;;23.00
63220;BMP180;49320;52.512;13.448;2022-07-29T03:29:02;101432.00;;;23.00
63220;BMP180;49320;52.512;13.448;2022-07-29T03:31:29;101422.00;;;23.00
63220;BMP180;49320;52.512;13.448;2022-07-29T03:33:56;101421.00;;;23.10
63220;BMP180;49320;52.512;13.448;2022-07-29T03:36:24;101427.00;;;23.10
63220;BMP180;49320;52.512;13.448;2022-07-29T03:38:51;101426.00;;;23.10
63220;BMP180;49320;52.512;13.448;2022-07-29T03:41:21;101417.00;;;23.10
63220;BMP180;49320;52.512;13.448;2022-07-29T03:43:50;101417.00;;;23.10
63220;BMP180;49320;52.512;13.448;2022-07-29T03:46:22;101416.00;;;23.10
63220;BMP180;49320;52.512;13.448;2022-07-29T03:48:55;101406.00;;;23.10
63220;BMP180;49320;52.512;13.448;2022-07-29T03:51:25;101407.00;;;23.10
63220;BMP180;49320;52.512;13.448;2022-07-29T03:54:04;101400.00;;;23.10
63220;BMP180;49320;52.512;13.448;2022-07-29T03:56:46;101403.00;;;23.10
63220;BMP180;49320;52.512;13.448;2022-07-29T03:59:17;101411.00;;;23.10
63220;BMP180;49320;52.512;13.448;2022-07-29T04:01:47;101413.00;;;23.10
63220;BMP180;49320;52.512;13.448;2022-07-29T04:04:15;101415.00;;;23.10
63220;BMP180;49320;52.512;13.448;2022-07-29T04:06:45;101407.00;;;23.10
63220;BMP180;49320;52.512;13.448;2022-07-29T04:09:14;101423.00;;;23.10
63220;BMP180;49320;52.512;13.448;2022-07-29T04:11:42;101415.00;;;23.20
63220;BMP180;49320;52.512;13.448;2022-07-29T04:14:33;101412.00;;;23.10
63220;BMP180;49320;52.512;13.448;2022-07-29T04:17:03;101416.00;;;23.20
63220;BMP180;49320;52.512;13.448;2022-07-29T04:19:31;101421.00;;;23.20
63220;BMP180;49320;52.512;13.448;2022-07-29T04:21:59;101418.00;;;23.30
63220;BMP180;49320;52.512;13.448;2022-07-29T04:24:27;101432.00;;;23.30
63220;BMP180;49320;52.512;13.448;2022-07-29T04:26:54;101433.00;;;23.40
63220;BMP180;49320;52.512;13.448;2022-07-29T04:29:21;101426.00;;;23.40
63220;BMP180;49320;52.512;13.448;2022-07-29T04:31:48;101419.00;;;23.50
63220;BMP180;49320;52.512;13.448;2022-07-29T04:34:15;101425.00;;;23.60
63220;BMP180;49320;52.512;13.448;2022-07-29T04:36:42;101432.00;;;23.60
63220;BMP180;49320;52.512;13.448;2022-07-29T04:39:09;101425.00;;;23.60
63220;BMP180;49320;52.512;13.448;2022-07-29T04:41:36;101424.00;;;23.70
63220;BMP180;49320;52.512;13.448;2022-07-29T04:44:06;101425.00;;;23.70
63220;BMP180;49320;52.512;13.448;2022-07-29T04:46:35;101419.00;;;23.70
63220;BMP180;49320;52.512;13.448;2022-07-29T04:49:03;101425.00;;;23.80
63220;BMP180;49320;52.512;13.448;2022-07-29T04:51:30;101431.00;;;23.80
63220;BMP180;49320;52.512;13.448;2022-07-29T04:53:57;101430.00;;;23.80
63220;BMP180;49320;52.512;13.448;2022-07-29T04:56:24;101426.00;;;23.80
63220;BMP180;49320;52.512;13.448;2022-07-29T04:58:51;101428.00;;;23.80
63220;BMP180;49320;52.512;13.448;2022-07-29T05:01:18;101432.00;;;23.80
63220;BMP180;49320;52.512;13.448;2022-07-29T05:03:45;101433.00;;;23.90
63220;BMP180;49320;52.512;13.448;2022-07-29T05:06:12;101428.00;;;23.90
63220;BMP180;49320;52.512;13.448;2022-07-29T05:08:39;101420.00;;;24.00
63220;BMP180;49320;52.512;13.448;2022-07-29T05:11:07;101427.00;;;24.00
63220;BMP180;49320;52.512;13.448;2022-07-29T05:13:39;101430.00;;;24.00
63220;BMP180;49320;52.512;13.448;2022-07-29T05:16:13;101427.00;;;24.10
63220;BMP180;49320;52.512;13.448;2022-07-29T05:18:41;101425.00;;;24.20
63220;BMP180;49320;52.512;13.448;2022-07-29T05:21:09;101428.00;;;24.30
63220;BMP180;49320;52.512;13.448;2022-07-29T05:23:36;101428.00;;;24.40
63220;BMP180;49320;52.512;13.448;2022-07-29T05:26:03;101422.00;;;24.40
63220;BMP180;49320;52.512;13.448;2022-07-29T05:28:34;101423.00;;;24.50
63220;BMP180;49320;52.512;13.448;2022-07-29T05:31:01;101421.00;;;24.70
63220;BMP180;49320;52.512;13.448;2022-07-29T05:33:28;101415.00;;;24.70
63220;BMP180;49320;52.512;13.448;2022-07-29T05:36:05;101419.00;;;24.80
63220;BMP180;49320;52.512;13.448;2022-07-29T05:38:35;101417.00;;;24.90
63220;BMP180;49320;52.512;13.448;2022-07-29T05:41:04;101422.00;;;25.00
63220;BMP180;49320;52.512;13.448;2022-07-29T05:43:31;101416.00;;;25.10
63220;BMP180;49320;52.512;13.448;2022-07-29T05:45:59;101411.00;;;25.20
63220;BMP180;49320;52.512;13.448;2022-07-29T05:48:27;101402.00;;;25.20
63220;BMP180;49320;52.512;13.448;2022-07-29T05:50:54;101412.00;;;25.20
63220;BMP180;49320;52.512;13.448;2022-07-29T05:53:22;101419.00;;;25.20
63220;BMP180;49320;52.512;13.448;2022-07-29T05:55:50;101422.00;;;25.20
63220;BMP180;49320;52.512;13.448;2022-07-29T05:58:17;101417.00;;;25.20
63220;BMP180;49320;52.512;13.448;2022-07-29T06:00:44;101417.00;;;25.20
63220;BMP180;49320;52.512;13.448;2022-07-29T06:03:11;101412.00;;;25.30
63220;BMP180;49320;52.512;13.448;2022-07-29T06:05:38;101421.00;;;25.30
63220;BMP180;49320;52.512;13.448;2022-07-29T06:08:05;101431.00;;;25.50
63220;BMP180;49320;52.512;13.448;2022-07-29T06:10:37;101428.00;;;25.60
63220;BMP180;49320;52.512;13.448;2022-07-29T06:13:04;101426.00;;;25.70
63220;BMP180;49320;52.512;13.448;2022-07-29T06:15:31;101426.00;;;25.90
63220;BMP180;49320;52.512;13.448;2022-07-29T06:17:58;101427.00;;;26.00
63220;BMP180;49320;52.512;13.448;2022-07-29T06:20:29;101426.00;;;26.20
63220;BMP180;49320;52.512;13.448;2022-07-29T06:22:57;101411.00;;;26.30
63220;BMP180;49320;52.512;13.448;2022-07-29T06:25:25;101421.00;;;26.40
63220;BMP180;49320;52.512;13.448;2022-07-29T06:27:52;101421.00;;;26.60
63220;BMP180;49320;52.512;13.448;2022-07-29T06:30:19;101417.00;;;26.70
63220;BMP180;49320;52.512;13.448;2022-07-29T06:32:46;101419.00;;;26.90
63220;BMP180;49320;52.512;13.448;2022-07-29T06:35:13;101421.00;;;27.00
63220;BMP180;49320;52.512;13.448;2022-07-29T06:38:02;101416.00;;;27.20
63220;BMP180;49320;52.512;13.448;2022-07-29T06:40:44;101417.00;;;27.30
63220;BMP180;49320;52.512;13.448;2022-07-29T06:46:02;101416.00;;;27.50
63220;BMP180;49320;52.512;13.448;2022-07-29T06:48:30;101416.00;;;27.60
63220;BMP180;49320;52.512;13.448;2022-07-29T06:50:57;101423.00;;;27.70
63220;BMP180;49320;52.512;13.448;2022-07-29T06:53:27;101423.00;;;27.70
63220;BMP180;49320;52.512;13.448;2022-07-29T06:55:54;101416.00;;;27.80
63220;BMP180;49320;52.512;13.448;2022-07-29T06:58:21;101423.00;;;27.80
63220;BMP180;49320;52.512;13.448;2022-07-29T07:00:48;101432.00;;;27.90
63220;BMP180;49320;52.512;13.448;2022-07-29T07:03:17;101429.00;;;28.00
63220;BMP180;49320;52.512;13.448;2022-07-29T07:05:45;101434.00;;;28.10
63220;BMP180;49320;52.512;13.448;2022-07-29T07:08:12;101433.00;;;28.20
63220;BMP180;49320;52.512;13.448;2022-07-29T07:10:39;101430.00;;;28.20
63220;BMP180;49320;52.512;13.448;2022-07-29T07:13:06;101442.00;;;28.30
63220;BMP180;49320;52.512;13.448;2022-07-29T07:15:35;101442.00;;;28.40
63220;BMP180;49320;52.512;13.448;2022-07-29T07:18:06;101442.00;;;28.50
63220;BMP180;49320;52.512;13.448;2022-07-29T07:20:34;101432.00;;;28.50
63220;BMP180;49320;52.512;13.448;2022-07-29T07:23:02;101441.00;;;28.60
63220;BMP180;49320;52.512;13.448;2022-07-29T07:25:29;101439.00;;;28.70
63220;BMP180;49320;52.512;13.448;2022-07-29T07:27:56;101439.00;;;28.70
63220;BMP180;49320;52.512;13.448;2022-07-29T07:30:23;101438.00;;;28.80
63220;BMP180;49320;52.512;13.448;2022-07-29T07:32:50;101438.00;;;28.80
63220;BMP180;49320;52.512;13.448;2022-07-29T07:35:17;101433.00;;;28.90
63220;BMP180;49320;52.512;13.448;2022-07-29T07:37:45;101428.00;;;28.90
63220;BMP180;49320;52.512;13.448;2022-07-29T07:40:12;101424.00;;;28.90
63220;BMP180;49320;52.512;13.448;2022-07-29T07:42:44;101424.00;;;28.80
63220;BMP180;49320;52.512;13.448;2022-07-29T07:45:12;101432.00;;;28.90
63220;BMP180;49320;52.512;13.448;2022-07-29T07:47:42;101427.00;;;28.90
63220;BMP180;49320;52.512;13.448;2022-07-29T07:50:11;101417.00;;;28.90
63220;BMP180;49320;52.512;13.448;2022-07-29T07:52:55;101430.00;;;28.90
63220;BMP180;49320;52.512;13.448;2022-07-29T07:55:26;101434.00;;;28.90
63220;BMP180;49320;52.512;13.448;2022-07-29T07:57:56;101420.00;;;28.90
63220;BMP180;49320;52.512;13.448;2022-07-29T08:00:23;101421.00;;;28.90
63220;BMP180;49320;52.512;13.448;2022-07-29T08:02:50;101422.00;;;28.90
63220;BMP180;49320;52.512;13.448;2022-07-29T08:05:17;101419.00;;;28.90
63220;BMP180;49320;52.512;13.448;2022-07-29T08:07:46;101407.00;;;28.90
63220;BMP180;49320;52.512;13.448;2022-07-29T08:10:18;101412.00;;;28.90
63220;BMP180;49320;52.512;13.448;2022-07-29T08:13:06;101420.00;;;29.00
63220;BMP180;49320;52.512;13.448;2022-07-29T08:15:34;101417.00;;;29.10
63220;BMP180;49320;52.512;13.448;2022-07-29T08:18:02;101415.00;;;29.20
63220;BMP180;49320;52.512;13.448;2022-07-29T08:20:35;101414.00;;;29.30
63220;BMP180;49320;52.512;13.448;2022-07-29T08:23:03;101411.00;;;29.40
63220;BMP180;49320;52.512;13.448;2022-07-29T08:25:32;101419.00;;;29.50
63220;BMP180;49320;52.512;13.448;2022-07-29T08:28:04;101409.00;;;29.50
63220;BMP180;49320;52.512;13.448;2022-07-29T08:30:33;101411.00;;;29.60
63220;BMP180;49320;52.512;13.448;2022-07-29T08:33:00;101413.00;;;29.60
63220;BMP180;49320;52.512;13.448;2022-07-29T08:35:27;101409.00;;;29.70
63220;BMP180;49320;52.512;13.448;2022-07-29T08:38:00;101403.00;;;29.70
63220;BMP180;49320;52.512;13.448;2022-07-29T08:40:28;101409.00;;;29.80
63220;BMP180;49320;52.512;13.448;2022-07-29T08:43:06;101407.00;;;29.90
63220;BMP180;49320;52.512;13.448;2022-07-29T08:45:46;101398.00;;;29.90
63220;BMP180;49320;52.512;13.448;2022-07-29T08:48:19;101408.00;;;30.00
63220;BMP180;49320;52.512;13.448;2022-07-29T08:50:56;101396.00;;;30.00
63220;BMP180;49320;52.512;13.448;2022-07-29T08:53:26;101398.00;;;30.00
63220;BMP180;49320;52.512;13.448;2022-07-29T08:55:54;101398.00;;;30.10
63220;BMP180;49320;52.512;13.448;2022-07-29T08:58:22;101405.00;;;30.10
63220;BMP180;49320;52.512;13.448;2022-07-29T09:00:53;101402.00;;;30.20
63220;BMP180;49320;52.512;13.448;2022-07-29T09:03:25;101406.00;;;30.20
63220;BMP180;49320;52.512;13.448;2022-07-29T09:05:54;101403.00;;;30.30
63220;BMP180;49320;52.512;13.448;2022-07-29T09:08:22;101405.00;;;30.30
63220;BMP180;49320;52.512;13.448;2022-07-29T09:10:50;101403.00;;;30.40
63220;BMP180;49320;52.512;13.448;2022-07-29T09:13:17;101404.00;;;30.40
63220;BMP180;49320;52.512;13.448;2022-07-29T09:15:45;101405.00;;;30.50
63220;BMP180;49320;52.512;13.448;2022-07-29T09:18:12;101395.00;;;30.50
63220;BMP180;49320;52.512;13.448;2022-07-29T09:20:56;101403.00;;;30.60
63220;BMP180;49320;52.512;13.448;2022-07-29T09:23:59;101413.00;;;30.70
63220;BMP180;49320;52.512;13.448;2022-07-29T09:26:29;101399.00;;;30.70
63220;BMP180;49320;52.512;13.448;2022-07-29T09:28:58;101384.00;;;30.80
63220;BMP180;49320;52.512;13.448;2022-07-29T09:31:34;101392.00;;;30.90
63220;BMP180;49320;52.512;13.448;2022-07-29T09:34:03;101404.00;;;30.90
63220;BMP180;49320;52.512;13.448;2022-07-29T09:36:30;101397.00;;;31.00
63220;BMP180;49320;52.512;13.448;2022-07-29T09:39:04;101389.00;;;31.00
63220;BMP180;49320;52.512;13.448;2022-07-29T09:41:46;101396.00;;;31.10
63220;BMP180;49320;52.512;13.448;2022-07-29T09:44:13;101399.00;;;31.10
63220;BMP180;49320;52.512;13.448;2022-07-29T09:46:57;101392.00;;;31.20
63220;BMP180;49320;52.512;13.448;2022-07-29T09:49:25;101387.00;;;31.20
63220;BMP180;49320;52.512;13.448;2022-07-29T09:52:09;101387.00;;;31.40
63220;BMP180;49320;52.512;13.448;2022-07-29T09:54:37;101382.00;;;31.50
63220;BMP180;49320;52.512;13.448;2022-07-29T09:57:21;101380.00;;;31.70
63220;BMP180;49320;52.512;13.448;2022-07-29T10:00:08;101380.00;;;31.90
63220;BMP180;49320;52.512;13.448;2022-07-29T10:02:37;101388.00;;;32.10
63220;BMP180;49320;52.512;13.448;2022-07-29T10:05:26;101377.00;;;32.20
63220;BMP180;49320;52.512;13.448;2022-07-29T10:08:03;101370.00;;;32.30
63220;BMP180;49320;52.512;13.448;2022-07-29T10:10:33;101377.00;;;32.40
63220;BMP180;49320;52.512;13.448;2022-07-29T10:13:06;101382.00;;;32.60
63220;BMP180;49320;52.512;13.448;2022-07-29T10:15:43;101377.00;;;32.70
63220;BMP180;49320;52.512;13.448;2022-07-29T10:18:13;101373.00;;;32.80
63220;BMP180;49320;52.512;13.448;2022-07-29T10:20:41;101373.00;;;32.90
63220;BMP180;49320;52.512;13.448;2022-07-29T10:23:09;101376.00;;;32.90
63220;BMP180;49320;52.512;13.448;2022-07-29T10:25:36;101374.00;;;33.00
63220;BMP180;49320;52.512;13.448;2022-07-29T10:28:05;101373.00;;;33.10
63220;BMP180;49320;52.512;13.448;2022-07-29T10:30:33;101370.00;;;33.10
63220;BMP180;49320;52.512;13.448;2022-07-29T10:36:04;101371.00;;;33.10
63220;BMP180;49320;52.512;13.448;2022-07-29T10:38:52;101364.00;;;33.00
63220;BMP180;49320;52.512;13.448;2022-07-29T10:41:49;101367.00;;;32.90
63220;BMP180;49320;52.512;13.448;2022-07-29T10:44:23;101368.00;;;32.90
63220;BMP180;49320;52.512;13.448;2022-07-29T10:46:52;101365.00;;;33.00
63220;BMP180;49320;52.512;13.448;2022-07-29T10:49:25;101362.00;;;33.00
63220;BMP180;49320;52.512;13.448;2022-07-29T10:52:08;101358.00;;;33.10
63220;BMP180;49320;52.512;13.448;2022-07-29T10:54:36;101358.00;;;33.20
63220;BMP180;49320;52.512;13.448;2022-07-29T11:05:20;101347.00;;;33.60
63220;BMP180;49320;52.512;13.448;2022-07-29T11:10:51;101355.00;;;33.80
63220;BMP180;49320;52.512;13.448;2022-07-29T11:16:14;101340.00;;;33.80
63220;BMP180;49320;52.512;13.448;2022-07-29T11:21:44;101335.00;;;33.90
63220;BMP180;49320;52.512;13.448;2022-07-29T11:24:29;101339.00;;;33.90
63220;BMP180;49320;52.512;13.448;2022-07-29T11:32:20;101352.00;;;34.00
63220;BMP180;49320;52.512;13.448;2022-07-29T11:35:23;101344.00;;;33.90
63220;BMP180;49320;52.512;13.448;2022-07-29T11:38:27;101347.00;;;34.00
63220;BMP180;49320;52.512;13.448;2022-07-29T11:41:25;101347.00;;;34.00
63220;BMP180;49320;52.512;13.448;2022-07-29T11:43:59;101337.00;;;34.10
63220;BMP180;49320;52.512;13.448;2022-07-29T11:46:47;101339.00;;;34.10
63220;BMP180;49320;52.512;13.448;2022-07-29T11:49:24;101335.00;;;34.10
63220;BMP180;49320;52.512;13.448;2022-07-29T11:52:00;101329.00;;;34.10
63220;BMP180;49320;52.512;13.448;2022-07-29T11:54:34;101327.00;;;34.20
63220;BMP180;49320;52.512;13.448;2022-07-29T11:57:21;101332.00;;;34.20
63220;BMP180;49320;52.512;13.448;2022-07-29T12:00:07;101319.00;;;34.30
63220;BMP180;49320;52.512;13.448;2022-07-29T12:02:44;101321.00;;;34.30
63220;BMP180;49320;52.512;13.448;2022-07-29T12:05:14;101322.00;;;34.30
63220;BMP180;49320;52.512;13.448;2022-07-29T12:08:11;101321.00;;;34.20
63220;BMP180;49320;52.512;13.448;2022-07-29T12:10:41;101310.00;;;34.20
63220;BMP180;49320;52.512;13.448;2022-07-29T12:13:10;101318.00;;;34.20
63220;BMP180;49320;52.512;13.448;2022-07-29T12:15:38;101314.00;;;34.10
63220;BMP180;49320;52.512;13.448;2022-07-29T12:18:22;101315.00;;;34.10
63220;BMP180;49320;52.512;13.448;2022-07-29T12:20:58;101304.00;;;34.10
63220;BMP180;49320;52.512;13.448;2022-07-29T12:23:33;101304.00;;;34.10
63220;BMP180;49320;52.512;13.448;2022-07-29T12:26:05;101300.00;;;34.10
63220;BMP180;49320;52.512;13.448;2022-07-29T12:28:39;101294.00;;;34.10
63220;BMP180;49320;52.512;13.448;2022-07-29T12:31:14;101294.00;;;34.10
63220;BMP180;49320;52.512;13.448;2022-07-29T12:34:01;101288.00;;;34.10
63220;BMP180;49320;52.512;13.448;2022-07-29T12:36:28;101296.00;;;34.10
63220;BMP180;49320;52.512;13.448;2022-07-29T12:38:56;101290.00;;;34.10
63220;BMP180;49320;52.512;13.448;2022-07-29T12:41:23;101285.00;;;34.10
63220;BMP180;49320;52.512;13.448;2022-07-29T12:43:54;101283.00;;;34.20
63220;BMP180;49320;52.512;13.448;2022-07-29T12:46:21;101288.00;;;34.30
63220;BMP180;49320;52.512;13.448;2022-07-29T12:48:52;101298.00;;;34.40
63220;BMP180;49320;52.512;13.448;2022-07-29T12:51:49;101289.00;;;34.50
63220;BMP180;49320;52.512;13.448;2022-07-29T12:54:16;101285.00;;;34.60
63220;BMP180;49320;52.512;13.448;2022-07-29T12:56:44;101293.00;;;34.60
63220;BMP180;49320;52.512;13.448;2022-07-29T12:59:14;101279.00;;;34.70
63220;BMP180;49320;52.512;13.448;2022-07-29T13:01:42;101286.00;;;34.80
63220;BMP180;49320;52.512;13.448;2022-07-29T13:04:10;101290.00;;;34.90
63220;BMP180;49320;52.512;13.448;2022-07-29T13:06:41;101293.00;;;35.00
63220;BMP180;49320;52.512;13.448;2022-07-29T13:09:18;101278.00;;;35.10
63220;BMP180;49320;52.512;13.448;2022-07-29T13:11:51;101274.00;;;35.10
63220;BMP180;49320;52.512;13.448;2022-07-29T13:17:07;101272.00;;;35.10
63220;BMP180;49320;52.512;13.448;2022-07-29T13:19:47;101270.00;;;35.10
63220;BMP180;49320;52.512;13.448;2022-07-29T13:22:18;101271.00;;;35.10
63220;BMP180;49320;52.512;13.448;2022-07-29T13:25:04;101268.00;;;35.20
63220;BMP180;49320;52.512;13.448;2022-07-29T13:27:36;101262.00;;;35.30
63220;BMP180;49320;52.512;13.448;2022-07-29T13:30:09;101261.00;;;35.40
63220;BMP180;49320;52.512;13.448;2022-07-29T13:32:36;101257.00;;;35.50
63220;BMP180;49320;52.512;13.448;2022-07-29T13:35:07;101258.00;;;35.60
63220;BMP180;49320;52.512;13.448;2022-07-29T13:37:36;101257.00;;;35.60
63220;BMP180;49320;52.512;13.448;2022-07-29T13:40:08;101265.00;;;35.60
63220;BMP180;49320;52.512;13.448;2022-07-29T13:42:36;101260.00;;;35.70
63220;BMP180;49320;52.512;13.448;2022-07-29T13:45:04;101263.00;;;35.70
63220;BMP180;49320;52.512;13.448;2022-07-29T13:47:31;101257.00;;;35.70
63220;BMP180;49320;52.512;13.448;2022-07-29T13:50:00;101255.00;;;35.70
63220;BMP180;49320;52.512;13.448;2022-07-29T13:52:28;101251.00;;;35.70
63220;BMP180;49320;52.512;13.448;2022-07-29T13:54:55;101249.00;;;35.70
63220;BMP180;49320;52.512;13.448;2022-07-29T13:57:22;101251.00;;;35.60
63220;BMP180;49320;52.512;13.448;2022-07-29T13:59:49;101241.00;;;35.60
63220;BMP180;49320;52.512;13.448;2022-07-29T14:02:21;101248.00;;;35.60
63220;BMP180;49320;52.512;13.448;2022-07-29T14:04:53;101247.00;;;35.60
63220;BMP180;49320;52.512;13.448;2022-07-29T14:07:21;101242.00;;;35.60
63220;BMP180;49320;52.512;13.448;2022-07-29T14:09:49;101240.00;;;35.60
63220;BMP180;49320;52.512;13.448;2022-07-29T14:12:16;101237.00;;;35.60
63220;BMP180;49320;52.512;13.448;2022-07-29T14:14:43;101234.00;;;35.60
63220;BMP180;49320;52.512;13.448;2022-07-29T14:17:13;101235.00;;;35.60
63220;BMP180;49320;52.512;13.448;2022-07-29T14:19:40;101226.00;;;35.70
63220;BMP180;49320;52.512;13.448;2022-07-29T14:22:08;101221.00;;;35.70
63220;BMP180;49320;52.512;13.448;2022-07-29T14:24:36;101229.00;;;35.70
63220;BMP180;49320;52.512;13.448;2022-07-29T14:27:07;101221.00;;;35.70
63220;BMP180;49320;52.512;13.448;2022-07-29T14:29:34;101228.00;;;35.80
63220;BMP180;49320;52.512;13.448;2022-07-29T14:32:09;101226.00;;;35.70
63220;BMP180;49320;52.512;13.448;2022-07-29T14:34:37;101221.00;;;35.70
63220;BMP180;49320;52.512;13.448;2022-07-29T14:37:05;101218.00;;;35.70
63220;BMP180;49320;52.512;13.448;2022-07-29T14:39:34;101219.00;;;35.70
63220;BMP180;49320;52.512;13.448;2022-07-29T14:42:09;101220.00;;;35.60
63220;BMP180;49320;52.512;13.448;2022-07-29T14:44:39;101211.00;;;35.60
63220;BMP180;49320;52.512;13.448;2022-07-29T14:47:08;101217.00;;;35.60
63220;BMP180;49320;52.512;13.448;2022-07-29T14:49:35;101212.00;;;35.70
63220;BMP180;49320;52.512;13.448;2022-07-29T14:52:03;101218.00;;;35.70